createdAt,value
2019-02-05T00:02:58.923Z,98321.59
2019-02-05T00:06:06.047Z,98317.67
2019-02-05T00:09:13.411Z,98326.47
2019-02-05T00:12:20.299Z,98335.97
2019-02-05T00:15:27.009Z,98343.07
2019-02-05T00:18:33.743Z,98351.97
2019-02-05T00:21:40.640Z,98349.05
2019-02-05T00:24:47.035Z,98351.06
2019-02-05T00:27:53.697Z,98355.89
2019-02-05T00:31:00.465Z,98345.80
2019-02-05T00:34:06.901Z,98344.51
2019-02-05T00:37:13.534Z,98341.06
2019-02-05T00:40:20.629Z,98333.72
2019-02-05T00:43:27.702Z,98330.04
2019-02-05T00:46:34.902Z,98327.08
2019-02-05T00:49:41.363Z,98322.97
2019-02-05T00:52:50.768Z,98330.45
2019-02-05T00:55:57.415Z,98330.91
2019-02-05T00:59:05.513Z,98337.41
2019-02-05T01:02:12.156Z,98340.86
2019-02-05T01:05:19.116Z,98339.94
2019-02-05T01:08:25.858Z,98331.17
2019-02-05T01:11:32.038Z,98336.44
2019-02-05T01:14:38.908Z,98332.87
2019-02-05T01:17:45.345Z,98336.96
2019-02-05T01:20:51.775Z,98337.47
2019-02-05T01:23:58.245Z,98335.64
2019-02-05T01:27:04.764Z,98334.95
2019-02-05T01:30:14.448Z,98336.19
2019-02-05T01:33:20.754Z,98328.64
2019-02-05T01:36:27.736Z,98327.29
2019-02-05T01:39:34.126Z,98327.23
2019-02-05T01:42:40.498Z,98319.63
2019-02-05T01:45:47.120Z,98319.20
2019-02-05T01:48:53.514Z,98323.89
2019-02-05T01:52:00.018Z,98322.80
2019-02-05T01:55:08.581Z,98327.14
2019-02-05T01:58:15.323Z,98327.72
2019-02-05T02:01:21.817Z,98341.33
2019-02-05T02:04:28.036Z,98335.47
2019-02-05T02:07:34.449Z,98330.83
2019-02-05T02:10:40.690Z,98326.48
2019-02-05T02:13:47.736Z,98304.70
2019-02-05T02:16:54.280Z,98298.41
2019-02-05T02:20:00.824Z,98301.33
2019-02-05T02:23:07.181Z,98297.30
2019-02-05T02:26:13.675Z,98289.51
2019-02-05T02:29:20.462Z,98282.14
2019-02-05T02:32:26.828Z,98294.70
2019-02-05T02:35:33.448Z,98306.42
2019-02-05T02:38:39.713Z,98305.69
2019-02-05T02:41:47.918Z,98306.89
2019-02-05T02:44:54.255Z,98312.02
2019-02-05T02:48:01.212Z,98306.20
2019-02-05T02:51:07.969Z,98306.45
2019-02-05T02:54:14.486Z,98294.81
2019-02-05T02:57:21.429Z,98290.58
2019-02-05T03:00:27.974Z,98269.62
2019-02-05T03:03:34.706Z,98265.33
2019-02-05T03:06:41.026Z,98260.52
2019-02-05T03:09:47.500Z,98257.88
2019-02-05T03:12:56.820Z,98256.63
2019-02-05T03:16:04.083Z,98261.48
2019-02-05T03:19:10.510Z,98259.09
2019-02-05T03:22:17.193Z,98256.11
2019-02-05T03:25:24.543Z,98247.69
2019-02-05T03:28:30.979Z,98256.60
2019-02-05T03:31:39.524Z,98251.92
2019-02-05T03:34:45.813Z,98257.34
2019-02-05T03:37:53.211Z,98256.18
2019-02-05T03:41:03.805Z,98249.08
2019-02-05T03:44:10.387Z,98244.11
2019-02-05T03:47:16.848Z,98257.59
2019-02-05T03:50:23.742Z,98261.03
2019-02-05T03:53:31.302Z,98262.05
2019-02-05T03:57:04.902Z,98273.03
2019-02-05T04:00:51.107Z,98276.21
2019-02-05T04:04:40.150Z,98273.22
2019-02-05T04:08:20.189Z,98259.89
2019-02-05T04:12:03.391Z,98263.34
2019-02-05T04:15:32.052Z,98282.34
2019-02-05T04:19:19.587Z,98284.42
2019-02-05T04:23:07.590Z,98277.06
2019-02-05T04:26:30.547Z,98298.11
2019-02-05T04:30:15.768Z,98299.56
2019-02-05T04:34:13.868Z,98290.63
2019-02-05T04:38:02.392Z,98298.02
2019-02-05T04:41:38.808Z,98302.06
2019-02-05T04:45:09.639Z,98302.66
2019-02-05T04:48:45.840Z,98302.26
2019-02-05T04:52:03.675Z,98315.25
2019-02-05T04:55:35.991Z,98321.37
2019-02-05T04:59:48.616Z,98312.64
2019-02-05T05:03:22.257Z,98316.37
2019-02-05T05:07:10.787Z,98315.39
2019-02-05T05:10:17.373Z,98311.14
2019-02-05T05:13:24.210Z,98318.09
2019-02-05T05:16:31.169Z,98322.38
2019-02-05T05:19:37.526Z,98325.52
2019-02-05T05:22:44.226Z,98320.58
2019-02-05T05:25:50.985Z,98327.61
2019-02-05T05:28:57.637Z,98319.83
2019-02-05T05:32:04.162Z,98318.04
2019-02-05T05:35:11.217Z,98320.07
2019-02-05T05:38:17.587Z,98326.27
2019-02-05T05:41:23.918Z,98321.92
2019-02-05T05:44:31.026Z,98320.66
2019-02-05T05:47:37.593Z,98322.75
2019-02-05T05:50:44.583Z,98324.45
2019-02-05T05:53:50.800Z,98318.34
2019-02-05T05:56:57.908Z,98316.44
2019-02-05T06:00:05.032Z,98322.91
2019-02-05T06:03:11.714Z,98329.52
2019-02-05T06:06:18.293Z,98331.13
2019-02-05T06:09:24.824Z,98330.09
2019-02-05T06:12:31.727Z,98329.94
2019-02-05T06:15:38.970Z,98329.87
2019-02-05T06:18:45.336Z,98335.85
2019-02-05T06:21:52.111Z,98318.96
2019-02-05T06:24:58.932Z,98327.61
2019-02-05T06:28:06.117Z,98340.48
2019-02-05T06:31:12.670Z,98332.05
2019-02-05T06:34:19.051Z,98335.55
2019-02-05T06:37:25.988Z,98341.20
2019-02-05T06:40:32.670Z,98337.55
2019-02-05T06:43:39.133Z,98333.14
2019-02-05T06:46:45.672Z,98327.10
2019-02-05T06:49:52.511Z,98335.16
2019-02-05T06:52:59.132Z,98337.72
2019-02-05T06:56:06.424Z,98327.80
2019-02-05T06:59:12.916Z,98337.41
2019-02-05T07:02:19.512Z,98330.66
2019-02-05T07:05:25.992Z,98332.14
2019-02-05T07:08:32.817Z,98331.55
2019-02-05T07:11:39.104Z,98340.02
2019-02-05T07:14:45.256Z,98327.58
2019-02-05T07:17:51.566Z,98331.83
2019-02-05T07:20:58.367Z,98331.77
2019-02-05T07:24:04.777Z,98347.59
2019-02-05T07:27:11.430Z,98354.05
2019-02-05T07:30:20.886Z,98355.98
2019-02-05T07:33:27.411Z,98359.67
2019-02-05T07:36:35.418Z,98366.98
2019-02-05T07:39:42.327Z,98373.02
2019-02-05T07:42:49.179Z,98378.46
2019-02-05T07:45:55.723Z,98385.17
2019-02-05T07:49:02.514Z,98382.56
2019-02-05T07:52:09.023Z,98383.32
2019-02-05T07:55:16.132Z,98387.91
2019-02-05T07:58:22.978Z,98393.97
2019-02-05T08:01:30.678Z,98389.62
2019-02-05T08:04:37.806Z,98403.09
2019-02-05T08:07:44.647Z,98395.72
2019-02-05T08:10:51.196Z,98391.38
2019-02-05T08:13:58.302Z,98391.34
2019-02-05T08:17:05.151Z,98398.17
2019-02-05T08:20:11.738Z,98406.63
2019-02-05T08:23:18.430Z,98415.98
2019-02-05T08:26:25.166Z,98408.34
2019-02-05T08:29:32.215Z,98404.42
2019-02-05T08:32:38.739Z,98403.41
2019-02-05T08:35:45.271Z,98400.72
2019-02-05T08:38:51.696Z,98409.63
2019-02-05T08:41:58.160Z,98419.73
2019-02-05T08:45:06.771Z,98416.84
2019-02-05T08:48:13.868Z,98414.11
2019-02-05T08:51:20.501Z,98414.45
2019-02-05T08:54:27.268Z,98410.00
2019-02-05T08:57:34.130Z,98415.73
2019-02-05T09:00:40.789Z,98411.09
2019-02-05T09:03:47.176Z,98417.80
2019-02-05T09:06:53.767Z,98413.54
2019-02-05T09:10:00.503Z,98419.09
2019-02-05T09:13:07.386Z,98417.59
2019-02-05T09:16:14.223Z,98417.88
2019-02-05T09:19:22.240Z,98413.81
2019-02-05T09:22:29.352Z,98419.61
2019-02-05T09:25:36.199Z,98415.47
2019-02-05T09:28:42.666Z,98417.79
2019-02-05T09:31:49.243Z,98427.36
2019-02-05T09:34:55.548Z,98427.06
2019-02-05T09:38:01.815Z,98423.50
2019-02-05T09:41:09.056Z,98430.95
2019-02-05T09:44:15.352Z,98423.88
2019-02-05T09:47:22.568Z,98431.57
2019-02-05T09:50:30.965Z,98444.42
2019-02-05T09:53:37.611Z,98437.27
2019-02-05T09:56:45.497Z,98438.12
2019-02-05T09:59:51.907Z,98441.42
2019-02-05T10:02:58.235Z,98450.75
2019-02-05T10:06:04.961Z,98444.36
2019-02-05T10:09:11.610Z,98448.32
2019-02-05T10:12:18.937Z,98455.13
2019-02-05T10:15:28.194Z,98461.41
2019-02-05T10:18:34.679Z,98471.81
2019-02-05T10:21:41.554Z,98466.77
2019-02-05T10:24:49.967Z,98474.72
2019-02-05T10:27:56.449Z,98473.80
2019-02-05T10:31:02.823Z,98470.58
2019-02-05T10:34:10.599Z,98475.93
2019-02-05T10:37:18.015Z,98472.05
2019-02-05T10:40:25.053Z,98481.91
2019-02-05T10:43:34.308Z,98487.07
2019-02-05T10:46:41.049Z,98488.91
2019-02-05T10:49:47.477Z,98480.34
2019-02-05T10:52:54.402Z,98486.56
2019-02-05T10:56:00.919Z,98483.31
2019-02-05T10:59:08.228Z,98480.11
2019-02-05T11:02:15.127Z,98484.91
2019-02-05T11:05:24.723Z,98480.02
2019-02-05T11:08:32.059Z,98474.79
2019-02-05T11:11:38.764Z,98487.81
2019-02-05T11:14:45.562Z,98492.48
2019-02-05T11:17:51.892Z,98481.52
2019-02-05T11:20:59.116Z,98477.91
2019-02-05T11:24:06.294Z,98470.59
2019-02-05T11:27:12.973Z,98468.02
2019-02-05T11:30:21.920Z,98468.19
2019-02-05T11:33:28.271Z,98472.95
2019-02-05T11:36:35.588Z,98466.02
2019-02-05T11:39:41.957Z,98471.84
2019-02-05T11:42:48.591Z,98471.42
2019-02-05T11:45:58.213Z,98478.02
2019-02-05T11:49:05.102Z,98479.22
2019-02-05T11:52:11.914Z,98477.56
2019-02-05T11:55:20.453Z,98476.27
2019-02-05T11:58:27.262Z,98476.63
2019-02-05T12:01:39.048Z,98487.69
2019-02-05T12:04:45.022Z,98485.34
2019-02-05T12:07:51.866Z,98489.08
2019-02-05T12:10:59.060Z,98489.93
2019-02-05T12:14:05.818Z,98487.22
2019-02-05T12:17:12.510Z,98481.63
2019-02-05T12:20:19.091Z,98469.98
2019-02-05T12:23:27.512Z,98466.84
2019-02-05T12:26:34.808Z,98464.70
2019-02-05T12:29:41.491Z,98454.68
2019-02-05T12:32:48.035Z,98447.70
2019-02-05T12:35:54.672Z,98450.47
2019-02-05T12:39:01.273Z,98451.17
2019-02-05T12:42:09.484Z,98448.14
2019-02-05T12:45:18.788Z,98449.73
2019-02-05T12:48:25.336Z,98451.78
2019-02-05T12:51:33.179Z,98446.86
2019-02-05T12:54:40.014Z,98443.55
2019-02-05T12:57:46.946Z,98434.88
2019-02-05T13:00:59.744Z,98430.17
2019-02-05T13:04:05.678Z,98433.78
2019-02-05T13:07:12.174Z,98439.02
2019-02-05T13:10:21.259Z,98443.05
2019-02-05T13:13:28.644Z,98443.26
2019-02-05T13:16:35.738Z,98434.03
2019-02-05T13:19:42.232Z,98436.97
2019-02-05T13:22:49.268Z,98438.70
2019-02-05T13:25:56.779Z,98447.53
2019-02-05T13:29:03.327Z,98445.02
2019-02-05T13:32:10.036Z,98449.97
2019-02-05T13:35:16.411Z,98464.33
2019-02-05T13:38:22.948Z,98452.22
2019-02-05T13:41:29.739Z,98452.55
2019-02-05T13:44:36.268Z,98454.37
2019-02-05T13:47:42.693Z,98457.12
2019-02-05T13:50:49.251Z,98461.05
2019-02-05T13:53:56.357Z,98463.53
2019-02-05T13:57:02.974Z,98465.48
2019-02-05T14:00:14.687Z,98467.38
2019-02-05T14:03:21.058Z,98469.50
2019-02-05T14:06:27.733Z,98474.93
2019-02-05T14:09:34.578Z,98468.16
2019-02-05T14:12:42.181Z,98460.16
2019-02-05T14:15:51.810Z,98466.92
2019-02-05T14:18:58.540Z,98468.59
2019-02-05T14:22:05.364Z,98465.75
2019-02-05T14:25:13.187Z,98475.28
2019-02-05T14:28:20.201Z,98463.11
2019-02-05T14:31:31.359Z,98468.09
2019-02-05T14:34:35.733Z,98465.75
2019-02-05T14:37:42.478Z,98469.08
2019-02-05T14:40:49.145Z,98472.31
2019-02-05T14:43:55.795Z,98482.80
2019-02-05T14:47:03.404Z,98480.09
2019-02-05T14:50:17.490Z,98472.31
2019-02-05T14:53:27.008Z,98473.27
2019-02-05T14:56:35.104Z,98473.27
2019-02-05T14:59:42.834Z,98479.89
2019-02-05T15:02:49.957Z,98467.82
2019-02-05T15:05:57.209Z,98467.89
2019-02-05T15:09:05.745Z,98481.63
2019-02-05T15:12:13.220Z,98484.17
2019-02-05T15:15:20.511Z,98489.40
2019-02-05T15:18:28.423Z,98491.98
2019-02-05T15:21:36.183Z,98493.77
2019-02-05T15:24:42.831Z,98498.51
2019-02-05T15:27:50.191Z,98493.17
2019-02-05T15:30:58.192Z,98499.99
2019-02-05T15:34:18.599Z,98503.94
2019-02-05T15:37:25.336Z,98516.08
2019-02-05T15:40:52.090Z,98520.38
2019-02-05T15:44:00.984Z,98523.73
2019-02-05T15:47:08.772Z,98522.98
2019-02-05T15:50:15.729Z,98516.38
2019-02-05T15:53:22.516Z,98524.91
2019-02-05T15:56:29.483Z,98519.92
2019-02-05T15:59:36.488Z,98519.31
2019-02-05T16:02:43.409Z,98516.17
2019-02-05T16:05:50.791Z,98514.09
2019-02-05T16:08:58.720Z,98507.55
2019-02-05T16:12:05.950Z,98513.08
2019-02-05T16:15:13.431Z,98516.98
2019-02-05T16:18:20.395Z,98514.86
2019-02-05T16:21:27.657Z,98511.25
2019-02-05T16:24:34.697Z,98504.58
2019-02-05T16:27:41.721Z,98498.14
2019-02-05T16:30:48.609Z,98504.41
2019-02-05T16:33:56.550Z,98497.47
2019-02-05T16:37:03.152Z,98494.25
2019-02-05T16:40:19.218Z,98493.00
2019-02-05T16:43:28.124Z,98492.95
2019-02-05T16:46:36.308Z,98492.89
2019-02-05T16:49:42.954Z,98495.34
2019-02-05T16:52:51.750Z,98500.03
2019-02-05T16:55:58.508Z,98511.16
2019-02-05T16:59:07.802Z,98512.52
2019-02-05T17:02:14.238Z,98512.30
2019-02-05T17:05:22.343Z,98512.66
2019-02-05T17:08:29.889Z,98509.53
2019-02-05T17:11:36.692Z,98515.17
2019-02-05T17:14:43.247Z,98515.11
2019-02-05T17:17:50.069Z,98515.70
2019-02-05T17:20:56.749Z,98518.18
2019-02-05T17:24:03.345Z,98521.70
2019-02-05T17:27:11.490Z,98518.42
2019-02-05T17:30:25.754Z,98517.38
2019-02-05T17:33:32.484Z,98521.28
2019-02-05T17:36:39.230Z,98528.69
2019-02-05T17:39:46.394Z,98531.77
2019-02-05T17:42:53.991Z,98532.67
2019-02-05T17:46:00.793Z,98530.69
2019-02-05T17:49:12.109Z,98534.20
2019-02-05T17:52:18.812Z,98531.83
2019-02-05T17:55:25.692Z,98537.60
2019-02-05T17:58:32.500Z,98537.31
2019-02-05T18:01:40.630Z,98536.38
2019-02-05T18:04:47.832Z,98537.48
2019-02-05T18:07:54.505Z,98534.16
2019-02-05T18:11:02.165Z,98535.18
2019-02-05T18:14:12.336Z,98535.23
2019-02-05T18:17:19.101Z,98538.40
2019-02-05T18:20:26.077Z,98533.08
2019-02-05T18:23:32.896Z,98532.80
2019-02-05T18:26:39.526Z,98529.58
2019-02-05T18:29:46.662Z,98531.80
2019-02-05T18:33:03.173Z,98522.73
2019-02-05T18:36:01.578Z,98524.16
2019-02-05T18:39:11.652Z,98526.06
2019-02-05T18:42:18.297Z,98530.02
2019-02-05T18:45:25.054Z,98529.02
2019-02-05T18:48:32.024Z,98546.83
2019-02-05T18:51:40.415Z,98547.77
2019-02-05T18:54:47.090Z,98548.39
2019-02-05T18:57:54.042Z,98547.73
2019-02-05T19:01:01.432Z,98535.53
2019-02-05T19:04:08.732Z,98544.69
2019-02-05T19:07:15.460Z,98552.49
2019-02-05T19:10:23.641Z,98547.38
2019-02-05T19:13:31.134Z,98551.24
2019-02-05T19:16:38.503Z,98557.88
2019-02-05T19:19:45.573Z,98554.13
2019-02-05T19:22:54.661Z,98557.77
2019-02-05T19:26:08.754Z,98560.06
2019-02-05T19:29:19.084Z,98560.23
2019-02-05T19:32:28.650Z,98560.06
2019-02-05T19:35:35.281Z,98558.05
2019-02-05T19:38:42.089Z,98563.69
2019-02-05T19:41:49.493Z,98561.49
2019-02-05T19:45:08.564Z,98562.47
2019-02-05T19:48:24.002Z,98554.72
2019-02-05T19:51:32.381Z,98561.75
2019-02-05T19:54:39.259Z,98561.34
2019-02-05T19:57:45.989Z,98562.20
2019-02-05T20:00:52.890Z,98566.09
2019-02-05T20:04:01.747Z,98571.97
2019-02-05T20:07:08.484Z,98565.16
2019-02-05T20:10:15.010Z,98564.38
2019-02-05T20:13:22.376Z,98568.81
2019-02-05T20:16:29.165Z,98559.36
2019-02-05T20:19:36.099Z,98566.78
2019-02-05T20:22:43.351Z,98558.98
2019-02-05T20:25:50.513Z,98565.48
2019-02-05T20:28:57.650Z,98572.91
2019-02-05T20:32:04.368Z,98574.72
2019-02-05T20:35:11.260Z,98569.87
2019-02-05T20:38:17.901Z,98568.61
2019-02-05T20:41:24.447Z,98564.83
2019-02-05T20:44:31.594Z,98570.57
2019-02-05T20:47:38.324Z,98575.84
2019-02-05T20:50:45.544Z,98578.13
2019-02-05T20:53:52.457Z,98574.34
2019-02-05T20:56:59.454Z,98569.63
2019-02-05T21:00:11.176Z,98576.55
2019-02-05T21:03:17.640Z,98575.27
2019-02-05T21:06:24.101Z,98569.77
2019-02-05T21:09:31.137Z,98576.63
2019-02-05T21:12:39.679Z,98576.63
2019-02-05T21:15:46.469Z,98577.57
2019-02-05T21:18:54.158Z,98572.03
2019-02-05T21:22:01.595Z,98565.27
2019-02-05T21:25:10.838Z,98566.17
2019-02-05T21:28:17.520Z,98571.30
2019-02-05T21:31:23.981Z,98577.84
2019-02-05T21:34:31.033Z,98586.17
2019-02-05T21:37:38.347Z,98591.50
2019-02-05T21:40:46.572Z,98594.58
2019-02-05T21:43:52.910Z,98591.57
2019-02-05T21:46:59.290Z,98588.15
2019-02-05T21:50:08.721Z,98594.67
2019-02-05T21:53:15.569Z,98583.98
2019-02-05T21:56:22.186Z,98580.95
2019-02-05T21:59:29.170Z,98580.95
2019-02-05T22:02:35.693Z,98573.30
2019-02-05T22:05:42.732Z,98579.83
2019-02-05T22:08:50.081Z,98584.55
2019-02-05T22:11:57.196Z,98584.56
2019-02-05T22:15:05.034Z,98583.20
2019-02-05T22:18:11.559Z,98585.88
2019-02-05T22:21:18.800Z,98585.09
2019-02-05T22:24:25.507Z,98585.92
2019-02-05T22:27:32.411Z,98583.41
2019-02-05T22:30:39.181Z,98574.77
2019-02-05T22:33:46.031Z,98577.00
2019-02-05T22:36:52.758Z,98578.28
2019-02-05T22:39:59.841Z,98582.20
2019-02-05T22:43:07.159Z,98576.63
2019-02-05T22:46:13.975Z,98573.61
2019-02-05T22:49:20.518Z,98572.73
2019-02-05T22:52:27.449Z,98573.19
2019-02-05T22:55:34.158Z,98574.92
2019-02-05T22:58:40.731Z,98577.97
2019-02-05T23:01:58.664Z,98572.40
2019-02-05T23:05:37.400Z,98580.14
2019-02-05T23:08:44.042Z,98569.38
2019-02-05T23:12:03.943Z,98571.95
2019-02-05T23:15:19.708Z,98570.69
2019-02-05T23:18:26.000Z,98564.24
2019-02-05T23:21:33.483Z,98564.69
2019-02-05T23:24:41.616Z,98565.58
2019-02-05T23:27:48.685Z,98572.48
2019-02-05T23:30:55.278Z,98566.00
2019-02-05T23:34:02.346Z,98573.33
2019-02-05T23:37:09.628Z,98576.81
2019-02-05T23:40:16.266Z,98575.07
2019-02-05T23:43:22.961Z,98575.95
2019-02-05T23:46:29.651Z,98580.25
2019-02-05T23:49:36.001Z,98576.37
2019-02-05T23:52:42.965Z,98569.89
2019-02-05T23:55:49.707Z,98579.80
2019-02-05T23:58:56.448Z,98575.52
